Savoonga Airport Savoonga US
ICAO: PASA
IATA:
Category: Medium
Scheduled Services:

Elevation: 53 ft
TransAlt. 18000 ft.

Airport Communications:
AWOS 3:121.3
CTAF:122.7
NOME RDO:122.3

PASA Zoom In..

Runways:

(A) RW 05 length 4400 ft width 100 ft
---- / hdg 50

(B) RW 23 length 4400 ft width 100 ft
---- / hdg 230

Location; PASA
Day. 25 / Time. 01.56 Zulu
* Altimeter: 28.41
* Temperature: 02° c. 35.6°f.
* Wind from: 180° Speed 26 kn with Gusts up to 38 kn.
Dewpoint: -01° c.
Visibility: 10 Statute Miles.
Clouds: Broken 1900 ft.

PASA 250156Z AUTO 18026G38KT 10SM BKN019 02/M01 A2841 RMK AO2 PK WND 18043/0102 RAE26B49E50UPB26E49 SLP620 P0000 T00171006 FZRANO

Going to: --> -->


Wind From 180°
Speed 26 kn.

 
 
jpsmedia worldairports.se 2020   terms of use